sensor_id;sensor_type;location;lat;lon;timestamp;temperature;humidity
35523;DHT22;61478;50.820;4.330;2022-12-18T00:02:16;0.10;99.90
35523;DHT22;61478;50.820;4.330;2022-12-18T00:04:42;0.00;99.90
35523;DHT22;61478;50.820;4.330;2022-12-18T00:07:08;-0.20;99.90
35523;DHT22;61478;50.820;4.330;2022-12-18T00:09:34;-0.20;99.90
35523;DHT22;61478;50.820;4.330;2022-12-18T00:11:59;0.00;99.90
35523;DHT22;61478;50.820;4.330;2022-12-18T00:14:25;0.20;99.90
35523;DHT22;61478;50.820;4.330;2022-12-18T00:16:51;0.00;99.90
35523;DHT22;61478;50.820;4.330;2022-12-18T00:19:16;0.00;99.90
35523;DHT22;61478;50.820;4.330;2022-12-18T00:21:43;-0.20;99.90
35523;DHT22;61478;50.820;4.330;2022-12-18T00:24:10;-0.30;99.90
35523;DHT22;61478;50.820;4.330;2022-12-18T00:26:36;-0.20;99.90
35523;DHT22;61478;50.820;4.330;2022-12-18T00:29:13;-0.20;99.90
35523;DHT22;61478;50.820;4.330;2022-12-18T00:31:39;-0.20;99.90
35523;DHT22;61478;50.820;4.330;2022-12-18T00:34:06;-0.30;99.90
35523;DHT22;61478;50.820;4.330;2022-12-18T00:36:33;-0.50;99.90
35523;DHT22;61478;50.820;4.330;2022-12-18T00:39:01;-0.50;99.90
35523;DHT22;61478;50.820;4.330;2022-12-18T00:41:27;-0.50;99.90
35523;DHT22;61478;50.820;4.330;2022-12-18T00:44:13;-0.50;99.90
35523;DHT22;61478;50.820;4.330;2022-12-18T00:46:40;-0.50;99.90
35523;DHT22;61478;50.820;4.330;2022-12-18T00:49:08;-0.50;99.90
35523;DHT22;61478;50.820;4.330;2022-12-18T00:51:34;-0.60;99.90
35523;DHT22;61478;50.820;4.330;2022-12-18T00:53:59;-0.60;99.90
35523;DHT22;61478;50.820;4.330;2022-12-18T00:56:25;-0.60;99.90
35523;DHT22;61478;50.820;4.330;2022-12-18T00:58:51;-0.70;99.90
35523;DHT22;61478;50.820;4.330;2022-12-18T01:01:17;-0.60;99.90
35523;DHT22;61478;50.820;4.330;2022-12-18T01:03:43;-0.80;99.90
35523;DHT22;61478;50.820;4.330;2022-12-18T01:06:12;-0.70;99.90
35523;DHT22;61478;50.820;4.330;2022-12-18T01:08:39;-0.80;99.90
35523;DHT22;61478;50.820;4.330;2022-12-18T01:11:12;-1.00;99.90
35523;DHT22;61478;50.820;4.330;2022-12-18T01:13:39;-1.10;99.90
35523;DHT22;61478;50.820;4.330;2022-12-18T01:16:05;-1.00;99.90
35523;DHT22;61478;50.820;4.330;2022-12-18T01:18:31;-1.10;99.90
35523;DHT22;61478;50.820;4.330;2022-12-18T01:20:57;-1.10;99.90
35523;DHT22;61478;50.820;4.330;2022-12-18T01:23:23;-1.20;99.90
35523;DHT22;61478;50.820;4.330;2022-12-18T01:25:48;-1.10;99.90
35523;DHT22;61478;50.820;4.330;2022-12-18T01:28:14;-1.00;99.90
35523;DHT22;61478;50.820;4.330;2022-12-18T01:30:40;-0.70;99.90
35523;DHT22;61478;50.820;4.330;2022-12-18T01:33:05;-0.60;99.90
35523;DHT22;61478;50.820;4.330;2022-12-18T01:35:31;-0.60;99.90
35523;DHT22;61478;50.820;4.330;2022-12-18T01:37:57;-0.70;99.90
35523;DHT22;61478;50.820;4.330;2022-12-18T01:40:23;-0.70;99.90
35523;DHT22;61478;50.820;4.330;2022-12-18T01:42:51;-0.80;99.90
35523;DHT22;61478;50.820;4.330;2022-12-18T01:45:27;-0.70;99.90
35523;DHT22;61478;50.820;4.330;2022-12-18T01:48:00;-1.00;99.90
35523;DHT22;61478;50.820;4.330;2022-12-18T01:50:34;-0.90;99.90
35523;DHT22;61478;50.820;4.330;2022-12-18T01:53:07;-1.00;99.90
35523;DHT22;61478;50.820;4.330;2022-12-18T01:55:45;-0.90;99.90
35523;DHT22;61478;50.820;4.330;2022-12-18T01:58:12;-0.90;99.90
35523;DHT22;61478;50.820;4.330;2022-12-18T02:00:38;-0.90;99.90
35523;DHT22;61478;50.820;4.330;2022-12-18T02:03:04;-0.80;99.90
35523;DHT22;61478;50.820;4.330;2022-12-18T02:05:45;-0.70;99.90
35523;DHT22;61478;50.820;4.330;2022-12-18T02:08:33;-0.60;99.90
35523;DHT22;61478;50.820;4.330;2022-12-18T02:11:10;-0.80;99.90
35523;DHT22;61478;50.820;4.330;2022-12-18T02:13:52;-0.90;99.90
35523;DHT22;61478;50.820;4.330;2022-12-18T02:27:22;-1.10;99.90
35523;DHT22;61478;50.820;4.330;2022-12-18T02:29:53;-1.10;99.90
35523;DHT22;61478;50.820;4.330;2022-12-18T02:32:32;-1.10;99.90
35523;DHT22;61478;50.820;4.330;2022-12-18T02:35:02;-1.20;99.90
35523;DHT22;61478;50.820;4.330;2022-12-18T02:37:30;-1.10;99.90
35523;DHT22;61478;50.820;4.330;2022-12-18T02:39:57;-1.00;99.90
35523;DHT22;61478;50.820;4.330;2022-12-18T02:42:24;-1.10;99.90
35523;DHT22;61478;50.820;4.330;2022-12-18T02:44:51;-1.30;99.90
35523;DHT22;61478;50.820;4.330;2022-12-18T02:47:22;-1.50;99.90
35523;DHT22;61478;50.820;4.330;2022-12-18T02:59:02;-0.80;99.90
35523;DHT22;61478;50.820;4.330;2022-12-18T03:02:04;-0.70;99.90
35523;DHT22;61478;50.820;4.330;2022-12-18T03:04:42;-0.60;99.90
35523;DHT22;61478;50.820;4.330;2022-12-18T03:07:23;-0.60;99.90
35523;DHT22;61478;50.820;4.330;2022-12-18T03:09:53;-0.50;99.90
35523;DHT22;61478;50.820;4.330;2022-12-18T03:12:23;-0.50;99.90
35523;DHT22;61478;50.820;4.330;2022-12-18T03:15:09;-0.30;99.90
35523;DHT22;61478;50.820;4.330;2022-12-18T03:17:37;-0.20;99.90
35523;DHT22;61478;50.820;4.330;2022-12-18T03:20:11;-0.10;99.90
35523;DHT22;61478;50.820;4.330;2022-12-18T03:22:38;-0.30;99.90
35523;DHT22;61478;50.820;4.330;2022-12-18T03:25:08;-0.30;99.90
35523;DHT22;61478;50.820;4.330;2022-12-18T03:27:37;-0.50;99.90
35523;DHT22;61478;50.820;4.330;2022-12-18T03:30:07;-0.50;99.90
35523;DHT22;61478;50.820;4.330;2022-12-18T03:33:25;-0.60;99.90
35523;DHT22;61478;50.820;4.330;2022-12-18T03:35:29;-0.60;99.90
35523;DHT22;61478;50.820;4.330;2022-12-18T03:37:56;-0.60;99.90
35523;DHT22;61478;50.820;4.330;2022-12-18T03:40:31;-0.80;99.90
35523;DHT22;61478;50.820;4.330;2022-12-18T03:43:07;-0.80;99.90
35523;DHT22;61478;50.820;4.330;2022-12-18T03:45:51;-0.50;99.90
35523;DHT22;61478;50.820;4.330;2022-12-18T03:48:38;-0.50;99.90
35523;DHT22;61478;50.820;4.330;2022-12-18T03:51:15;-0.50;99.90
35523;DHT22;61478;50.820;4.330;2022-12-18T03:56:11;-0.40;99.90
35523;DHT22;61478;50.820;4.330;2022-12-18T03:58:40;-0.50;99.90
35523;DHT22;61478;50.820;4.330;2022-12-18T04:01:10;-0.70;99.90
35523;DHT22;61478;50.820;4.330;2022-12-18T04:03:37;-0.70;99.90
35523;DHT22;61478;50.820;4.330;2022-12-18T04:06:05;-0.80;99.90
35523;DHT22;61478;50.820;4.330;2022-12-18T04:08:32;-0.90;99.90
35523;DHT22;61478;50.820;4.330;2022-12-18T04:10:59;-1.10;99.90
35523;DHT22;61478;50.820;4.330;2022-12-18T04:13:29;-1.00;99.90
35523;DHT22;61478;50.820;4.330;2022-12-18T04:15:55;-1.20;99.90
35523;DHT22;61478;50.820;4.330;2022-12-18T04:18:21;-1.40;99.90
35523;DHT22;61478;50.820;4.330;2022-12-18T04:20:46;-1.40;99.90
35523;DHT22;61478;50.820;4.330;2022-12-18T04:23:13;-1.40;99.90
35523;DHT22;61478;50.820;4.330;2022-12-18T04:25:39;-1.40;99.90
35523;DHT22;61478;50.820;4.330;2022-12-18T04:28:04;-1.40;99.90
35523;DHT22;61478;50.820;4.330;2022-12-18T04:30:30;-1.40;99.90
35523;DHT22;61478;50.820;4.330;2022-12-18T04:32:56;-1.30;99.90
35523;DHT22;61478;50.820;4.330;2022-12-18T04:35:21;-1.50;99.90
35523;DHT22;61478;50.820;4.330;2022-12-18T04:37:47;-1.50;99.90
35523;DHT22;61478;50.820;4.330;2022-12-18T04:40:13;-1.70;99.90
35523;DHT22;61478;50.820;4.330;2022-12-18T04:42:39;-2.00;99.90
35523;DHT22;61478;50.820;4.330;2022-12-18T04:45:06;-2.00;99.90
35523;DHT22;61478;50.820;4.330;2022-12-18T04:47:32;-2.10;99.90
35523;DHT22;61478;50.820;4.330;2022-12-18T04:49:58;-2.20;99.90
35523;DHT22;61478;50.820;4.330;2022-12-18T04:52:23;-2.20;99.90
35523;DHT22;61478;50.820;4.330;2022-12-18T04:54:49;-2.00;99.90
35523;DHT22;61478;50.820;4.330;2022-12-18T04:57:15;-2.00;99.90
35523;DHT22;61478;50.820;4.330;2022-12-18T04:59:40;-1.70;99.90
35523;DHT22;61478;50.820;4.330;2022-12-18T05:02:06;-1.60;99.90
35523;DHT22;61478;50.820;4.330;2022-12-18T05:04:32;-1.80;99.90
35523;DHT22;61478;50.820;4.330;2022-12-18T05:06:58;-2.00;99.90
35523;DHT22;61478;50.820;4.330;2022-12-18T05:09:23;-2.00;99.90
35523;DHT22;61478;50.820;4.330;2022-12-18T05:11:49;-2.20;99.90
35523;DHT22;61478;50.820;4.330;2022-12-18T05:14:15;-2.10;99.90
35523;DHT22;61478;50.820;4.330;2022-12-18T05:16:40;-1.90;99.90
35523;DHT22;61478;50.820;4.330;2022-12-18T05:19:06;-1.60;99.90
35523;DHT22;61478;50.820;4.330;2022-12-18T05:21:32;-1.50;99.90
35523;DHT22;61478;50.820;4.330;2022-12-18T05:23:57;-1.20;99.90
35523;DHT22;61478;50.820;4.330;2022-12-18T05:26:23;-1.20;99.90
35523;DHT22;61478;50.820;4.330;2022-12-18T05:28:49;-0.90;99.90
35523;DHT22;61478;50.820;4.330;2022-12-18T05:31:15;-1.10;99.90
35523;DHT22;61478;50.820;4.330;2022-12-18T05:33:40;-1.50;99.90
35523;DHT22;61478;50.820;4.330;2022-12-18T05:36:07;-1.80;99.90
35523;DHT22;61478;50.820;4.330;2022-12-18T05:38:35;-1.80;99.90
35523;DHT22;61478;50.820;4.330;2022-12-18T05:41:02;-1.80;99.90
35523;DHT22;61478;50.820;4.330;2022-12-18T05:43:28;-1.50;99.90
35523;DHT22;61478;50.820;4.330;2022-12-18T05:45:54;-1.30;99.90
35523;DHT22;61478;50.820;4.330;2022-12-18T05:48:21;-1.20;99.90
35523;DHT22;61478;50.820;4.330;2022-12-18T05:50:48;-1.50;99.90
35523;DHT22;61478;50.820;4.330;2022-12-18T05:53:16;-2.10;99.90
35523;DHT22;61478;50.820;4.330;2022-12-18T05:55:43;-2.40;99.90
35523;DHT22;61478;50.820;4.330;2022-12-18T05:58:11;-2.50;99.90
35523;DHT22;61478;50.820;4.330;2022-12-18T06:00:39;-2.60;99.90
35523;DHT22;61478;50.820;4.330;2022-12-18T06:03:09;-2.50;99.90
35523;DHT22;61478;50.820;4.330;2022-12-18T06:05:37;-2.40;99.90
35523;DHT22;61478;50.820;4.330;2022-12-18T06:08:03;-2.20;99.90
35523;DHT22;61478;50.820;4.330;2022-12-18T06:10:29;-2.10;99.90
35523;DHT22;61478;50.820;4.330;2022-12-18T06:12:55;-2.10;99.90
35523;DHT22;61478;50.820;4.330;2022-12-18T06:15:21;-1.90;99.90
35523;DHT22;61478;50.820;4.330;2022-12-18T06:17:46;-1.90;99.90
35523;DHT22;61478;50.820;4.330;2022-12-18T06:20:12;-1.70;99.90
35523;DHT22;61478;50.820;4.330;2022-12-18T06:22:38;-1.80;99.90
35523;DHT22;61478;50.820;4.330;2022-12-18T06:25:04;-1.70;99.90
35523;DHT22;61478;50.820;4.330;2022-12-18T06:27:31;-1.60;99.90
35523;DHT22;61478;50.820;4.330;2022-12-18T06:30:00;-1.60;99.90
35523;DHT22;61478;50.820;4.330;2022-12-18T06:32:26;-1.40;99.90
35523;DHT22;61478;50.820;4.330;2022-12-18T06:34:52;-1.40;99.90
35523;DHT22;61478;50.820;4.330;2022-12-18T06:37:19;-1.40;99.90
35523;DHT22;61478;50.820;4.330;2022-12-18T06:39:44;-1.40;99.90
35523;DHT22;61478;50.820;4.330;2022-12-18T06:42:10;-1.30;99.90
35523;DHT22;61478;50.820;4.330;2022-12-18T06:44:36;-1.30;99.90
35523;DHT22;61478;50.820;4.330;2022-12-18T06:47:01;-1.30;99.90
35523;DHT22;61478;50.820;4.330;2022-12-18T06:49:27;-1.40;99.90
35523;DHT22;61478;50.820;4.330;2022-12-18T06:51:53;-1.40;99.90
35523;DHT22;61478;50.820;4.330;2022-12-18T06:54:18;-1.40;99.90
35523;DHT22;61478;50.820;4.330;2022-12-18T06:56:47;-1.50;99.90
35523;DHT22;61478;50.820;4.330;2022-12-18T06:59:13;-1.70;99.90
35523;DHT22;61478;50.820;4.330;2022-12-18T07:01:40;-1.50;99.90
35523;DHT22;61478;50.820;4.330;2022-12-18T07:04:06;-1.30;99.90
35523;DHT22;61478;50.820;4.330;2022-12-18T07:06:31;-1.40;99.90
35523;DHT22;61478;50.820;4.330;2022-12-18T07:08:57;-1.30;99.90
35523;DHT22;61478;50.820;4.330;2022-12-18T07:11:23;-1.30;99.90
35523;DHT22;61478;50.820;4.330;2022-12-18T07:13:49;-1.30;99.90
35523;DHT22;61478;50.820;4.330;2022-12-18T07:16:17;-1.60;99.90
35523;DHT22;61478;50.820;4.330;2022-12-18T07:18:44;-1.70;99.90
35523;DHT22;61478;50.820;4.330;2022-12-18T07:21:17;-1.60;99.90
35523;DHT22;61478;50.820;4.330;2022-12-18T07:23:43;-1.50;99.90
35523;DHT22;61478;50.820;4.330;2022-12-18T07:26:12;-1.50;99.90
35523;DHT22;61478;50.820;4.330;2022-12-18T07:28:39;-1.30;99.90
35523;DHT22;61478;50.820;4.330;2022-12-18T07:31:16;-1.30;99.90
35523;DHT22;61478;50.820;4.330;2022-12-18T07:33:42;-1.20;99.90
35523;DHT22;61478;50.820;4.330;2022-12-18T07:36:09;-0.90;99.90
35523;DHT22;61478;50.820;4.330;2022-12-18T07:38:35;-1.00;99.90
35523;DHT22;61478;50.820;4.330;2022-12-18T07:41:06;-1.00;99.90
35523;DHT22;61478;50.820;4.330;2022-12-18T07:43:33;-0.80;99.90
35523;DHT22;61478;50.820;4.330;2022-12-18T07:45:59;-0.60;99.90
35523;DHT22;61478;50.820;4.330;2022-12-18T07:48:25;-0.70;99.90
35523;DHT22;61478;50.820;4.330;2022-12-18T07:50:50;-0.60;99.90
35523;DHT22;61478;50.820;4.330;2022-12-18T07:53:16;-0.50;99.90
35523;DHT22;61478;50.820;4.330;2022-12-18T07:55:42;-0.40;99.90
35523;DHT22;61478;50.820;4.330;2022-12-18T07:58:08;-0.70;99.90
35523;DHT22;61478;50.820;4.330;2022-12-18T08:00:34;-0.60;99.90
35523;DHT22;61478;50.820;4.330;2022-12-18T08:03:00;-0.50;99.90
35523;DHT22;61478;50.820;4.330;2022-12-18T08:05:26;-0.40;99.90
35523;DHT22;61478;50.820;4.330;2022-12-18T08:07:53;-0.40;99.90
35523;DHT22;61478;50.820;4.330;2022-12-18T08:10:19;-0.40;99.90
35523;DHT22;61478;50.820;4.330;2022-12-18T08:12:44;-0.30;99.90
35523;DHT22;61478;50.820;4.330;2022-12-18T08:15:10;-0.50;99.90
35523;DHT22;61478;50.820;4.330;2022-12-18T08:17:36;-0.50;99.90
35523;DHT22;61478;50.820;4.330;2022-12-18T08:20:02;-0.80;99.90
35523;DHT22;61478;50.820;4.330;2022-12-18T08:22:28;-1.20;99.90
35523;DHT22;61478;50.820;4.330;2022-12-18T08:24:54;-1.30;99.90
35523;DHT22;61478;50.820;4.330;2022-12-18T08:27:19;-1.30;99.90
35523;DHT22;61478;50.820;4.330;2022-12-18T08:29:45;-1.30;99.90
35523;DHT22;61478;50.820;4.330;2022-12-18T08:32:10;-1.20;99.90
35523;DHT22;61478;50.820;4.330;2022-12-18T08:34:36;-1.10;99.90
35523;DHT22;61478;50.820;4.330;2022-12-18T08:37:02;-1.00;99.90
35523;DHT22;61478;50.820;4.330;2022-12-18T08:39:28;-1.10;99.90
35523;DHT22;61478;50.820;4.330;2022-12-18T08:41:53;-1.00;99.90
35523;DHT22;61478;50.820;4.330;2022-12-18T08:44:38;-1.00;99.90
35523;DHT22;61478;50.820;4.330;2022-12-18T08:47:05;-1.00;99.90
35523;DHT22;61478;50.820;4.330;2022-12-18T08:49:30;-0.80;99.90
35523;DHT22;61478;50.820;4.330;2022-12-18T08:51:57;-0.50;99.90
35523;DHT22;61478;50.820;4.330;2022-12-18T08:54:23;-0.20;99.90
35523;DHT22;61478;50.820;4.330;2022-12-18T08:56:49;-0.10;99.90
35523;DHT22;61478;50.820;4.330;2022-12-18T08:59:16;0.10;99.90
35523;DHT22;61478;50.820;4.330;2022-12-18T09:01:42;0.10;99.90
35523;DHT22;61478;50.820;4.330;2022-12-18T09:04:12;0.00;99.90
35523;DHT22;61478;50.820;4.330;2022-12-18T09:06:39;0.10;99.90
35523;DHT22;61478;50.820;4.330;2022-12-18T09:09:06;0.00;99.90
35523;DHT22;61478;50.820;4.330;2022-12-18T09:11:32;0.10;99.90
35523;DHT22;61478;50.820;4.330;2022-12-18T09:14:00;0.10;99.90
35523;DHT22;61478;50.820;4.330;2022-12-18T09:16:26;0.00;99.90
35523;DHT22;61478;50.820;4.330;2022-12-18T09:18:54;-0.20;99.90
35523;DHT22;61478;50.820;4.330;2022-12-18T09:21:26;-0.10;99.90
35523;DHT22;61478;50.820;4.330;2022-12-18T09:23:54;0.10;99.90
35523;DHT22;61478;50.820;4.330;2022-12-18T09:26:21;0.20;99.90
35523;DHT22;61478;50.820;4.330;2022-12-18T09:28:47;0.10;99.90
35523;DHT22;61478;50.820;4.330;2022-12-18T09:31:14;-0.10;99.90
35523;DHT22;61478;50.820;4.330;2022-12-18T09:33:41;0.00;99.90
35523;DHT22;61478;50.820;4.330;2022-12-18T09:36:09;0.20;99.90
35523;DHT22;61478;50.820;4.330;2022-12-18T09:38:35;0.20;99.90
35523;DHT22;61478;50.820;4.330;2022-12-18T09:43:55;0.10;99.90
35523;DHT22;61478;50.820;4.330;2022-12-18T09:47:03;0.10;99.90
35523;DHT22;61478;50.820;4.330;2022-12-18T09:49:33;0.00;99.90
35523;DHT22;61478;50.820;4.330;2022-12-18T09:52:02;0.10;99.90
35523;DHT22;61478;50.820;4.330;2022-12-18T09:54:39;0.10;99.90
35523;DHT22;61478;50.820;4.330;2022-12-18T09:57:05;0.20;99.90
35523;DHT22;61478;50.820;4.330;2022-12-18T09:59:36;0.40;99.90
35523;DHT22;61478;50.820;4.330;2022-12-18T10:02:23;0.50;99.90
35523;DHT22;61478;50.820;4.330;2022-12-18T10:07:58;0.50;99.90
35523;DHT22;61478;50.820;4.330;2022-12-18T10:10:26;0.80;99.90
35523;DHT22;61478;50.820;4.330;2022-12-18T10:18:37;0.60;99.90
35523;DHT22;61478;50.820;4.330;2022-12-18T10:21:19;0.50;99.90
35523;DHT22;61478;50.820;4.330;2022-12-18T10:27:06;0.80;99.90
35523;DHT22;61478;50.820;4.330;2022-12-18T10:29:35;0.90;99.90
35523;DHT22;61478;50.820;4.330;2022-12-18T10:32:01;1.00;99.90
35523;DHT22;61478;50.820;4.330;2022-12-18T10:34:26;1.10;99.90
35523;DHT22;61478;50.820;4.330;2022-12-18T10:36:52;0.90;99.90
35523;DHT22;61478;50.820;4.330;2022-12-18T10:39:23;0.90;99.90
35523;DHT22;61478;50.820;4.330;2022-12-18T10:41:50;0.90;99.90
35523;DHT22;61478;50.820;4.330;2022-12-18T10:44:19;1.00;99.90
35523;DHT22;61478;50.820;4.330;2022-12-18T10:46:47;1.00;99.90
35523;DHT22;61478;50.820;4.330;2022-12-18T10:49:29;0.80;99.90
35523;DHT22;61478;50.820;4.330;2022-12-18T10:52:17;1.00;99.90
35523;DHT22;61478;50.820;4.330;2022-12-18T10:54:55;0.90;99.90
35523;DHT22;61478;50.820;4.330;2022-12-18T10:57:30;0.90;99.90
35523;DHT22;61478;50.820;4.330;2022-12-18T10:59:58;0.90;99.90
35523;DHT22;61478;50.820;4.330;2022-12-18T11:02:35;0.90;99.90
35523;DHT22;61478;50.820;4.330;2022-12-18T11:05:02;1.00;99.90
35523;DHT22;61478;50.820;4.330;2022-12-18T11:07:48;1.00;99.90
35523;DHT22;61478;50.820;4.330;2022-12-18T11:10:17;0.90;99.90
35523;DHT22;61478;50.820;4.330;2022-12-18T11:12:44;1.00;99.90
35523;DHT22;61478;50.820;4.330;2022-12-18T11:15:26;1.10;99.90
35523;DHT22;61478;50.820;4.330;2022-12-18T11:17:53;1.20;99.90
35523;DHT22;61478;50.820;4.330;2022-12-18T11:20:30;1.10;99.90
35523;DHT22;61478;50.820;4.330;2022-12-18T11:23:03;1.20;99.90
35523;DHT22;61478;50.820;4.330;2022-12-18T11:25:30;1.20;99.90
35523;DHT22;61478;50.820;4.330;2022-12-18T11:27:59;1.20;99.90
35523;DHT22;61478;50.820;4.330;2022-12-18T11:30:30;1.10;99.90
35523;DHT22;61478;50.820;4.330;2022-12-18T11:32:58;1.10;99.90
35523;DHT22;61478;50.820;4.330;2022-12-18T11:35:45;1.00;99.90
35523;DHT22;61478;50.820;4.330;2022-12-18T11:40:50;1.20;99.90
35523;DHT22;61478;50.820;4.330;2022-12-18T11:43:20;1.20;99.90
35523;DHT22;61478;50.820;4.330;2022-12-18T11:45:54;1.20;99.90
35523;DHT22;61478;50.820;4.330;2022-12-18T11:48:27;1.20;99.90
35523;DHT22;61478;50.820;4.330;2022-12-18T11:50:55;1.30;99.90
35523;DHT22;61478;50.820;4.330;2022-12-18T11:53:23;1.20;99.90
35523;DHT22;61478;50.820;4.330;2022-12-18T11:58:59;1.40;99.90
35523;DHT22;61478;50.820;4.330;2022-12-18T12:01:43;1.40;99.90
35523;DHT22;61478;50.820;4.330;2022-12-18T12:18:30;1.70;99.90
35523;DHT22;61478;50.820;4.330;2022-12-18T12:26:58;1.70;99.90
35523;DHT22;61478;50.820;4.330;2022-12-18T12:35:22;1.80;99.90
35523;DHT22;61478;50.820;4.330;2022-12-18T12:40:20;1.80;99.90
35523;DHT22;61478;50.820;4.330;2022-12-18T12:42:52;1.80;99.90
35523;DHT22;61478;50.820;4.330;2022-12-18T12:45:52;1.70;99.90
35523;DHT22;61478;50.820;4.330;2022-12-18T12:51:22;1.90;99.90
35523;DHT22;61478;50.820;4.330;2022-12-18T12:53:50;1.90;99.90
35523;DHT22;61478;50.820;4.330;2022-12-18T12:56:17;1.90;99.90
35523;DHT22;61478;50.820;4.330;2022-12-18T12:59:04;1.90;99.90
35523;DHT22;61478;50.820;4.330;2022-12-18T13:04:30;1.70;99.90
35523;DHT22;61478;50.820;4.330;2022-12-18T13:09:33;1.50;99.90
35523;DHT22;61478;50.820;4.330;2022-12-18T13:12:10;1.50;99.90
35523;DHT22;61478;50.820;4.330;2022-12-18T13:15:12;1.60;99.90
35523;DHT22;61478;50.820;4.330;2022-12-18T13:17:39;1.60;99.90
35523;DHT22;61478;50.820;4.330;2022-12-18T13:20:10;1.60;99.90
35523;DHT22;61478;50.820;4.330;2022-12-18T13:25:31;1.50;99.90
35523;DHT22;61478;50.820;4.330;2022-12-18T13:40:58;1.40;99.90
35523;DHT22;61478;50.820;4.330;2022-12-18T13:43:29;1.40;99.90
35523;DHT22;61478;50.820;4.330;2022-12-18T13:48:33;1.40;99.90
35523;DHT22;61478;50.820;4.330;2022-12-18T13:51:08;1.40;99.90
35523;DHT22;61478;50.820;4.330;2022-12-18T13:53:51;1.40;99.90
35523;DHT22;61478;50.820;4.330;2022-12-18T13:56:18;1.40;99.90
35523;DHT22;61478;50.820;4.330;2022-12-18T13:58:43;1.40;99.90
35523;DHT22;61478;50.820;4.330;2022-12-18T14:01:22;1.50;99.90
35523;DHT22;61478;50.820;4.330;2022-12-18T14:03:49;1.50;99.90
35523;DHT22;61478;50.820;4.330;2022-12-18T14:06:16;1.40;99.90
35523;DHT22;61478;50.820;4.330;2022-12-18T14:08:43;1.40;99.90
35523;DHT22;61478;50.820;4.330;2022-12-18T14:11:19;1.50;99.90
35523;DHT22;61478;50.820;4.330;2022-12-18T14:13:46;1.40;99.90
35523;DHT22;61478;50.820;4.330;2022-12-18T14:16:14;1.40;99.90
35523;DHT22;61478;50.820;4.330;2022-12-18T14:18:53;1.40;99.90
35523;DHT22;61478;50.820;4.330;2022-12-18T14:21:29;1.50;99.90
35523;DHT22;61478;50.820;4.330;2022-12-18T14:24:16;1.70;99.90
35523;DHT22;61478;50.820;4.330;2022-12-18T14:26:42;1.60;99.90
35523;DHT22;61478;50.820;4.330;2022-12-18T14:29:26;1.50;99.90
35523;DHT22;61478;50.820;4.330;2022-12-18T14:32:21;1.50;99.90
35523;DHT22;61478;50.820;4.330;2022-12-18T14:34:48;1.60;99.90
35523;DHT22;61478;50.820;4.330;2022-12-18T14:37:17;1.60;99.90
35523;DHT22;61478;50.820;4.330;2022-12-18T14:39:56;1.70;99.90
35523;DHT22;61478;50.820;4.330;2022-12-18T14:42:23;1.60;99.90
35523;DHT22;61478;50.820;4.330;2022-12-18T14:47:58;1.70;99.90
35523;DHT22;61478;50.820;4.330;2022-12-18T14:50:24;1.80;99.90
35523;DHT22;61478;50.820;4.330;2022-12-18T14:52:50;1.80;99.90
35523;DHT22;61478;50.820;4.330;2022-12-18T14:55:20;1.80;99.90
35523;DHT22;61478;50.820;4.330;2022-12-18T14:57:51;1.70;99.90
35523;DHT22;61478;50.820;4.330;2022-12-18T15:00:20;1.60;99.90
35523;DHT22;61478;50.820;4.330;2022-12-18T15:02:48;1.70;99.90
35523;DHT22;61478;50.820;4.330;2022-12-18T15:05:21;1.70;99.90
35523;DHT22;61478;50.820;4.330;2022-12-18T15:07:50;1.70;99.90
35523;DHT22;61478;50.820;4.330;2022-12-18T15:10:24;1.70;99.90
35523;DHT22;61478;50.820;4.330;2022-12-18T15:18:32;1.60;99.90
35523;DHT22;61478;50.820;4.330;2022-12-18T15:20:53;1.50;99.90
35523;DHT22;61478;50.820;4.330;2022-12-18T15:23:25;1.60;99.90
35523;DHT22;61478;50.820;4.330;2022-12-18T15:31:05;1.50;99.90
35523;DHT22;61478;50.820;4.330;2022-12-18T15:33:34;1.50;99.90
35523;DHT22;61478;50.820;4.330;2022-12-18T15:36:03;1.50;99.90
35523;DHT22;61478;50.820;4.330;2022-12-18T15:38:29;1.40;99.90
35523;DHT22;61478;50.820;4.330;2022-12-18T15:40:55;1.50;99.90
35523;DHT22;61478;50.820;4.330;2022-12-18T15:43:24;1.50;99.90
35523;DHT22;61478;50.820;4.330;2022-12-18T15:46:01;1.60;99.90
35523;DHT22;61478;50.820;4.330;2022-12-18T15:48:27;1.60;99.90
35523;DHT22;61478;50.820;4.330;2022-12-18T15:50:55;1.50;99.90
35523;DHT22;61478;50.820;4.330;2022-12-18T15:53:23;1.50;99.90
35523;DHT22;61478;50.820;4.330;2022-12-18T15:55:49;1.50;99.90
35523;DHT22;61478;50.820;4.330;2022-12-18T15:58:33;1.50;99.90
35523;DHT22;61478;50.820;4.330;2022-12-18T16:00:59;1.50;99.90
35523;DHT22;61478;50.820;4.330;2022-12-18T16:03:26;1.40;99.90
35523;DHT22;61478;50.820;4.330;2022-12-18T16:05:52;1.40;99.90
35523;DHT22;61478;50.820;4.330;2022-12-18T16:08:19;1.40;99.90
35523;DHT22;61478;50.820;4.330;2022-12-18T16:10:45;1.40;99.90
35523;DHT22;61478;50.820;4.330;2022-12-18T16:13:16;1.40;99.90
35523;DHT22;61478;50.820;4.330;2022-12-18T16:15:44;1.50;99.90
35523;DHT22;61478;50.820;4.330;2022-12-18T16:18:10;1.50;99.90
35523;DHT22;61478;50.820;4.330;2022-12-18T16:20:35;1.50;99.90
35523;DHT22;61478;50.820;4.330;2022-12-18T16:23:01;1.60;99.90
35523;DHT22;61478;50.820;4.330;2022-12-18T16:25:28;1.60;99.90
35523;DHT22;61478;50.820;4.330;2022-12-18T16:27:54;1.60;99.90
35523;DHT22;61478;50.820;4.330;2022-12-18T16:30:27;1.60;99.90
35523;DHT22;61478;50.820;4.330;2022-12-18T16:33:02;1.70;99.90
35523;DHT22;61478;50.820;4.330;2022-12-18T16:35:28;1.70;99.90
35523;DHT22;61478;50.820;4.330;2022-12-18T16:37:53;1.70;99.90
35523;DHT22;61478;50.820;4.330;2022-12-18T16:40:19;1.60;99.90
35523;DHT22;61478;50.820;4.330;2022-12-18T16:42:46;1.70;99.90
35523;DHT22;61478;50.820;4.330;2022-12-18T16:45:17;1.60;99.90
35523;DHT22;61478;50.820;4.330;2022-12-18T16:47:43;1.60;99.90
35523;DHT22;61478;50.820;4.330;2022-12-18T16:50:09;1.60;99.90
35523;DHT22;61478;50.820;4.330;2022-12-18T16:52:35;1.70;99.90
35523;DHT22;61478;50.820;4.330;2022-12-18T16:55:01;1.70;99.90
35523;DHT22;61478;50.820;4.330;2022-12-18T16:57:27;1.70;99.90
35523;DHT22;61478;50.820;4.330;2022-12-18T16:59:53;1.70;99.90
35523;DHT22;61478;50.820;4.330;2022-12-18T17:02:24;1.80;99.90
35523;DHT22;61478;50.820;4.330;2022-12-18T17:04:53;1.80;99.90
35523;DHT22;61478;50.820;4.330;2022-12-18T17:07:19;1.70;99.90
35523;DHT22;61478;50.820;4.330;2022-12-18T17:09:45;1.80;99.90
35523;DHT22;61478;50.820;4.330;2022-12-18T17:12:11;1.80;99.90
35523;DHT22;61478;50.820;4.330;2022-12-18T17:14:37;1.80;99.90
35523;DHT22;61478;50.820;4.330;2022-12-18T17:17:02;1.80;99.90
35523;DHT22;61478;50.820;4.330;2022-12-18T17:19:28;1.80;99.90
35523;DHT22;61478;50.820;4.330;2022-12-18T17:21:55;1.70;99.90
35523;DHT22;61478;50.820;4.330;2022-12-18T17:24:20;1.80;99.90
35523;DHT22;61478;50.820;4.330;2022-12-18T17:26:47;1.80;99.90
35523;DHT22;61478;50.820;4.330;2022-12-18T17:29:15;1.70;99.90
35523;DHT22;61478;50.820;4.330;2022-12-18T17:31:41;1.70;99.90
35523;DHT22;61478;50.820;4.330;2022-12-18T17:34:09;1.70;99.90
35523;DHT22;61478;50.820;4.330;2022-12-18T17:36:35;1.80;99.90
35523;DHT22;61478;50.820;4.330;2022-12-18T17:39:01;1.70;99.90
35523;DHT22;61478;50.820;4.330;2022-12-18T17:41:29;1.80;99.90
35523;DHT22;61478;50.820;4.330;2022-12-18T17:43:57;1.80;99.90